createdAt,value
2022-12-07T00:00:42.228Z,4.78
2022-12-07T00:01:42.326Z,4.78
2022-12-07T00:02:42.272Z,4.80
2022-12-07T00:03:42.223Z,4.80
2022-12-07T00:04:42.189Z,4.82
2022-12-07T00:05:42.179Z,4.85
2022-12-07T00:06:42.185Z,4.84
2022-12-07T00:07:42.231Z,4.84
2022-12-07T00:08:42.149Z,4.84
2022-12-07T00:09:42.171Z,4.84
2022-12-07T00:10:42.170Z,4.85
2022-12-07T00:11:42.194Z,4.86
2022-12-07T00:12:42.213Z,4.85
2022-12-07T00:13:42.100Z,4.86
2022-12-07T00:14:42.102Z,4.86
2022-12-07T00:15:42.060Z,4.85
2022-12-07T00:16:42.313Z,4.86
2022-12-07T00:17:42.172Z,4.86
2022-12-07T00:18:42.087Z,4.89
2022-12-07T00:19:42.044Z,4.88
2022-12-07T00:20:42.022Z,4.88
2022-12-07T00:21:42.015Z,4.89
2022-12-07T00:22:42.004Z,4.89
2022-12-07T00:23:41.990Z,4.89
2022-12-07T00:24:41.981Z,4.89
2022-12-07T00:25:41.963Z,4.92
2022-12-07T00:26:41.961Z,4.92
2022-12-07T00:27:41.963Z,4.91
2022-12-07T00:28:41.942Z,4.94
2022-12-07T00:29:41.957Z,4.91
2022-12-07T00:30:41.912Z,4.92
2022-12-07T00:31:41.960Z,4.92
2022-12-07T00:32:41.932Z,4.92
2022-12-07T00:33:41.871Z,4.92
2022-12-07T00:34:41.872Z,4.92
2022-12-07T00:35:41.856Z,4.94
2022-12-07T00:36:41.865Z,4.96
2022-12-07T00:37:41.837Z,4.96
2022-12-07T00:38:41.824Z,4.94
2022-12-07T00:39:41.813Z,4.94
2022-12-07T00:40:41.826Z,4.96
2022-12-07T00:41:41.811Z,4.96
2022-12-07T00:42:41.782Z,4.96
2022-12-07T00:43:41.764Z,4.96
2022-12-07T00:44:41.766Z,4.96
2022-12-07T00:45:41.807Z,4.96
2022-12-07T00:46:41.748Z,4.96
2022-12-07T00:47:41.726Z,4.96
2022-12-07T00:48:41.723Z,4.97
2022-12-07T00:49:41.725Z,4.97
2022-12-07T00:50:41.701Z,4.96
2022-12-07T00:51:41.694Z,4.96
2022-12-07T00:52:41.675Z,4.94
2022-12-07T00:53:42.262Z,4.94
2022-12-07T00:54:41.656Z,4.96
2022-12-07T00:55:41.660Z,4.94
2022-12-07T00:56:41.665Z,4.96
2022-12-07T00:57:41.624Z,4.92
2022-12-07T00:58:41.614Z,4.91
2022-12-07T00:59:41.640Z,4.91
2022-12-07T01:00:41.601Z,4.91
2022-12-07T01:01:41.652Z,4.91
2022-12-07T01:02:41.594Z,4.91
2022-12-07T01:03:41.595Z,4.89
2022-12-07T01:04:41.545Z,4.91
2022-12-07T01:05:41.538Z,4.91
2022-12-07T01:06:41.525Z,4.91
2022-12-07T01:07:41.555Z,4.89
2022-12-07T01:08:41.515Z,4.91
2022-12-07T01:09:41.505Z,4.92
2022-12-07T01:10:41.480Z,4.92
2022-12-07T01:11:41.467Z,4.92
2022-12-07T01:12:41.477Z,4.92
2022-12-07T01:13:41.454Z,4.94
2022-12-07T01:14:41.467Z,4.92
2022-12-07T01:15:41.428Z,4.92
2022-12-07T01:16:41.575Z,4.92
2022-12-07T01:17:41.427Z,4.91
2022-12-07T01:18:41.402Z,4.92
2022-12-07T01:19:41.397Z,4.92
2022-12-07T01:20:41.383Z,4.92
2022-12-07T01:21:41.358Z,4.94
2022-12-07T01:22:41.368Z,4.94
2022-12-07T01:23:41.398Z,4.94
2022-12-07T01:24:41.338Z,4.94
2022-12-07T01:25:41.317Z,4.94
2022-12-07T01:26:41.329Z,4.92
2022-12-07T01:27:41.308Z,4.92
2022-12-07T01:28:41.308Z,4.94
2022-12-07T01:29:41.306Z,4.94
2022-12-07T01:30:41.315Z,4.96
2022-12-07T01:31:41.250Z,4.96
2022-12-07T01:32:41.258Z,4.97
2022-12-07T01:33:41.255Z,4.96
2022-12-07T01:34:41.229Z,4.99
2022-12-07T01:35:41.210Z,4.99
2022-12-07T01:36:41.209Z,4.99
2022-12-07T01:37:41.198Z,4.99
2022-12-07T01:38:41.188Z,4.99
2022-12-07T01:39:41.191Z,4.99
2022-12-07T01:40:41.164Z,4.97
2022-12-07T01:41:41.211Z,4.97
2022-12-07T01:42:41.151Z,4.99
2022-12-07T01:43:41.149Z,4.97
2022-12-07T01:44:41.122Z,4.99
2022-12-07T01:45:41.258Z,5.00
2022-12-07T01:46:41.113Z,5.00
2022-12-07T01:47:41.111Z,5.02
2022-12-07T01:48:41.124Z,5.02
2022-12-07T01:49:41.091Z,5.04
2022-12-07T01:50:41.092Z,5.03
2022-12-07T01:51:41.051Z,5.04
2022-12-07T01:52:41.051Z,5.04
2022-12-07T01:53:41.191Z,5.04
2022-12-07T01:54:41.012Z,5.04
2022-12-07T01:55:41.003Z,5.04
2022-12-07T01:56:40.992Z,5.06
2022-12-07T01:57:41.126Z,5.04
2022-12-07T01:58:40.977Z,5.04
2022-12-07T01:59:41.095Z,5.06
2022-12-07T02:00:40.972Z,5.06
2022-12-07T02:01:41.132Z,5.06
2022-12-07T02:02:40.978Z,5.06
2022-12-07T02:03:41.103Z,5.06
2022-12-07T02:04:40.943Z,5.09
2022-12-07T02:05:40.894Z,5.09
2022-12-07T02:06:40.882Z,5.09
2022-12-07T02:07:41.029Z,5.09
2022-12-07T02:08:40.866Z,5.10
2022-12-07T02:09:40.873Z,5.10
2022-12-07T02:10:40.881Z,5.12
2022-12-07T02:11:40.833Z,5.12
2022-12-07T02:12:40.829Z,5.12
2022-12-07T02:13:40.815Z,5.12
2022-12-07T02:14:40.793Z,5.12
2022-12-07T02:15:40.848Z,5.12
2022-12-07T02:16:40.790Z,5.12
2022-12-07T02:17:40.775Z,5.13
2022-12-07T02:18:40.743Z,5.13
2022-12-07T02:19:40.745Z,5.15
2022-12-07T02:20:40.745Z,5.12
2022-12-07T02:21:40.823Z,5.13
2022-12-07T02:22:40.727Z,5.13
2022-12-07T02:23:40.775Z,5.13
2022-12-07T02:24:40.698Z,5.12
2022-12-07T02:25:40.683Z,5.12
2022-12-07T02:26:40.672Z,5.12
2022-12-07T02:27:40.675Z,5.13
2022-12-07T02:28:40.665Z,5.12
2022-12-07T02:29:40.636Z,5.13
2022-12-07T02:30:40.697Z,5.10
2022-12-07T02:31:40.674Z,5.12
2022-12-07T02:32:40.616Z,5.13
2022-12-07T02:33:40.598Z,5.13
2022-12-07T02:34:40.586Z,5.12
2022-12-07T02:35:40.583Z,5.13
2022-12-07T02:36:40.589Z,5.12
2022-12-07T02:37:40.557Z,5.13
2022-12-07T02:38:40.551Z,5.15
2022-12-07T02:39:40.527Z,5.15
2022-12-07T02:40:40.541Z,5.15
2022-12-07T02:41:40.505Z,5.15
2022-12-07T02:42:40.508Z,5.15
2022-12-07T02:43:40.488Z,5.17
2022-12-07T02:44:40.486Z,5.15
2022-12-07T02:45:40.467Z,5.15
2022-12-07T02:46:40.516Z,5.15
2022-12-07T02:47:40.487Z,5.15
2022-12-07T02:48:40.429Z,5.17
2022-12-07T02:49:40.457Z,5.15
2022-12-07T02:50:40.419Z,5.15
2022-12-07T02:51:40.405Z,5.15
2022-12-07T02:52:40.447Z,5.15
2022-12-07T02:53:40.377Z,5.15
2022-12-07T02:54:40.368Z,5.15
2022-12-07T02:55:40.358Z,5.15
2022-12-07T02:56:40.363Z,5.15
2022-12-07T02:57:40.338Z,5.18
2022-12-07T02:58:40.365Z,5.15
2022-12-07T02:59:40.318Z,5.17
2022-12-07T03:00:40.320Z,5.15
2022-12-07T03:01:40.354Z,5.17
2022-12-07T03:02:40.347Z,5.17
2022-12-07T03:03:40.268Z,5.17
2022-12-07T03:04:40.268Z,5.17
2022-12-07T03:05:40.251Z,5.15
2022-12-07T03:06:40.240Z,5.15
2022-12-07T03:07:40.304Z,5.18
2022-12-07T03:08:40.239Z,5.17
2022-12-07T03:09:40.209Z,5.18
2022-12-07T03:10:40.221Z,5.18
2022-12-07T03:11:40.180Z,5.18
2022-12-07T03:12:40.188Z,5.18
2022-12-07T03:13:40.171Z,5.17
2022-12-07T03:14:40.234Z,5.17
2022-12-07T03:15:40.196Z,5.17
2022-12-07T03:16:40.140Z,5.17
2022-12-07T03:17:40.132Z,5.17
2022-12-07T03:18:40.111Z,5.17
2022-12-07T03:19:40.159Z,5.17
2022-12-07T03:20:40.101Z,5.18
2022-12-07T03:21:40.074Z,5.15
2022-12-07T03:22:40.099Z,5.17
2022-12-07T03:23:40.062Z,5.17
2022-12-07T03:24:40.050Z,5.17
2022-12-07T03:25:40.040Z,5.17
2022-12-07T03:26:40.029Z,5.17
2022-12-07T03:27:40.020Z,5.17
2022-12-07T03:28:40.005Z,5.18
2022-12-07T03:29:39.992Z,5.17
2022-12-07T03:30:40.035Z,5.17
2022-12-07T03:31:40.058Z,5.17
2022-12-07T03:32:39.992Z,5.17
2022-12-07T03:33:39.944Z,5.15
2022-12-07T03:34:39.942Z,5.17
2022-12-07T03:35:39.932Z,5.18
2022-12-07T03:36:39.917Z,5.17
2022-12-07T03:37:39.941Z,5.17
2022-12-07T03:38:39.901Z,5.17
2022-12-07T03:39:39.902Z,5.17
2022-12-07T03:40:39.881Z,5.17
2022-12-07T03:41:44.949Z,5.18
2022-12-07T03:42:40.863Z,5.18
2022-12-07T03:43:39.845Z,5.17
2022-12-07T03:44:39.842Z,5.18
2022-12-07T03:45:39.823Z,5.17
2022-12-07T03:46:39.964Z,5.18
2022-12-07T03:47:39.828Z,5.17
2022-12-07T03:48:39.815Z,5.17
2022-12-07T03:49:39.774Z,5.18
2022-12-07T03:50:39.784Z,5.17
2022-12-07T03:51:39.754Z,5.18
2022-12-07T03:52:39.772Z,5.18
2022-12-07T03:53:39.756Z,5.18
2022-12-07T03:54:39.724Z,5.20
2022-12-07T03:55:39.729Z,5.18
2022-12-07T03:56:39.705Z,5.18
2022-12-07T03:57:39.696Z,5.17
2022-12-07T03:58:39.694Z,5.18
2022-12-07T03:59:39.677Z,5.18
2022-12-07T04:00:39.654Z,5.18
2022-12-07T04:01:39.740Z,5.20
2022-12-07T04:02:39.648Z,5.18
2022-12-07T04:03:39.633Z,5.18
2022-12-07T04:04:39.615Z,5.18
2022-12-07T04:05:39.613Z,5.18
2022-12-07T04:06:39.595Z,5.17
2022-12-07T04:07:39.671Z,5.18
2022-12-07T04:08:39.596Z,5.17
2022-12-07T04:09:39.589Z,5.17
2022-12-07T04:10:39.576Z,5.17
2022-12-07T04:11:39.549Z,5.17
2022-12-07T04:12:39.528Z,5.15
2022-12-07T04:13:39.544Z,5.13
2022-12-07T04:14:39.531Z,5.13
2022-12-07T04:15:39.592Z,5.13
2022-12-07T04:16:44.300Z,5.13
2022-12-07T04:17:40.484Z,5.15
2022-12-07T04:18:39.476Z,5.12
2022-12-07T04:19:39.465Z,5.12
2022-12-07T04:20:39.446Z,5.12
2022-12-07T04:21:39.436Z,5.12
2022-12-07T04:22:39.426Z,5.13
2022-12-07T04:23:39.426Z,5.10
2022-12-07T04:24:39.401Z,5.12
2022-12-07T04:25:39.397Z,5.10
2022-12-07T04:26:39.398Z,5.10
2022-12-07T04:27:39.370Z,5.09
2022-12-07T04:28:39.375Z,5.07
2022-12-07T04:29:39.355Z,5.07
2022-12-07T04:30:39.336Z,5.07
2022-12-07T04:31:39.384Z,5.06
2022-12-07T04:32:39.319Z,5.06
2022-12-07T04:33:39.327Z,5.06
2022-12-07T04:34:39.309Z,5.07
2022-12-07T04:35:39.294Z,5.06
2022-12-07T04:36:39.267Z,5.06
2022-12-07T04:37:39.280Z,5.04
2022-12-07T04:38:39.259Z,5.06
2022-12-07T04:39:39.248Z,5.04
2022-12-07T04:40:39.230Z,5.04
2022-12-07T04:41:39.228Z,5.06
2022-12-07T04:42:39.200Z,5.04
2022-12-07T04:43:39.232Z,5.04
2022-12-07T04:44:39.201Z,5.04
2022-12-07T04:45:39.190Z,5.04
2022-12-07T04:46:39.260Z,5.03
2022-12-07T04:47:39.173Z,5.03
2022-12-07T04:48:39.139Z,5.00
2022-12-07T04:49:39.167Z,4.97
2022-12-07T04:50:44.566Z,4.99
2022-12-07T04:51:40.118Z,4.94
2022-12-07T04:52:39.100Z,4.94
2022-12-07T04:53:39.101Z,4.91
2022-12-07T04:54:39.108Z,4.89
2022-12-07T04:55:39.072Z,4.88
2022-12-07T04:56:39.060Z,4.86
2022-12-07T04:57:39.101Z,4.84
2022-12-07T04:58:39.040Z,4.82
2022-12-07T04:59:45.145Z,4.80
2022-12-07T05:00:40.090Z,4.77
2022-12-07T05:01:39.108Z,4.77
2022-12-07T05:02:39.208Z,4.75
2022-12-07T05:03:38.992Z,4.73
2022-12-07T05:04:38.982Z,4.73
2022-12-07T05:05:38.971Z,4.72
2022-12-07T05:06:38.961Z,4.69
2022-12-07T05:07:39.005Z,4.69
2022-12-07T05:08:38.932Z,4.67
2022-12-07T05:09:38.935Z,4.65
2022-12-07T05:10:38.911Z,4.63
2022-12-07T05:11:38.891Z,4.63
2022-12-07T05:12:38.902Z,4.62
2022-12-07T05:13:38.882Z,4.62
2022-12-07T05:14:38.886Z,4.62
2022-12-07T05:15:38.851Z,4.60
2022-12-07T05:16:38.933Z,4.58
2022-12-07T05:17:39.062Z,4.52
2022-12-07T05:18:38.930Z,4.51
2022-12-07T05:19:38.828Z,4.50
2022-12-07T05:20:42.415Z,4.48
2022-12-07T05:21:38.790Z,4.48
2022-12-07T05:22:38.793Z,4.48
2022-12-07T05:23:38.788Z,4.51
2022-12-07T05:24:38.774Z,4.50
2022-12-07T05:25:38.754Z,4.48
2022-12-07T05:26:38.747Z,4.47
2022-12-07T05:27:38.730Z,4.47
2022-12-07T05:28:38.723Z,4.47
2022-12-07T05:29:38.716Z,4.45
2022-12-07T05:30:38.723Z,4.45
2022-12-07T05:31:38.739Z,4.44
2022-12-07T05:32:38.693Z,4.42
2022-12-07T05:33:38.663Z,4.41
2022-12-07T05:34:38.664Z,4.41
2022-12-07T05:35:38.674Z,4.40
2022-12-07T05:36:38.641Z,4.40
2022-12-07T05:37:38.641Z,4.40
2022-12-07T05:38:38.614Z,4.37
2022-12-07T05:39:38.616Z,4.37
2022-12-07T05:40:38.594Z,4.36
2022-12-07T05:41:38.584Z,4.34
2022-12-07T05:42:38.574Z,4.34
2022-12-07T05:43:38.556Z,4.32
2022-12-07T05:44:38.583Z,4.30
2022-12-07T05:45:38.552Z,4.26
2022-12-07T05:46:38.554Z,4.24
2022-12-07T05:47:38.534Z,4.23
2022-12-07T05:48:38.506Z,4.22
2022-12-07T05:49:38.520Z,4.22
2022-12-07T05:50:38.486Z,4.16
2022-12-07T05:51:38.465Z,4.16
2022-12-07T05:52:38.466Z,4.14
2022-12-07T05:53:38.445Z,4.11
2022-12-07T05:54:38.446Z,4.11
2022-12-07T05:55:38.426Z,4.11
2022-12-07T05:56:38.425Z,4.09
2022-12-07T05:57:38.405Z,4.08
2022-12-07T05:58:38.426Z,4.11
2022-12-07T05:59:38.396Z,4.11
2022-12-07T06:00:38.384Z,4.12
2022-12-07T06:01:38.416Z,4.15
2022-12-07T06:02:38.501Z,4.15
2022-12-07T06:03:38.338Z,4.16
2022-12-07T06:04:38.370Z,4.16
2022-12-07T06:05:38.319Z,4.22
2022-12-07T06:06:38.415Z,4.23
2022-12-07T06:07:38.393Z,4.26
2022-12-07T06:08:38.297Z,4.29
2022-12-07T06:09:38.296Z,4.29
2022-12-07T06:10:38.277Z,4.33
2022-12-07T06:11:38.272Z,4.34
2022-12-07T06:12:38.248Z,4.37
2022-12-07T06:13:41.202Z,4.40
2022-12-07T06:14:39.237Z,4.37
2022-12-07T06:15:38.276Z,4.41
2022-12-07T06:16:38.318Z,4.41
2022-12-07T06:17:38.224Z,4.44
2022-12-07T06:18:38.197Z,4.44
2022-12-07T06:19:38.189Z,4.47
2022-12-07T06:20:38.201Z,4.50
2022-12-07T06:21:38.166Z,4.50
2022-12-07T06:22:38.148Z,4.54
2022-12-07T06:23:38.127Z,4.55
2022-12-07T06:24:38.148Z,4.55
2022-12-07T06:25:38.119Z,4.55
2022-12-07T06:26:38.108Z,4.55
2022-12-07T06:27:38.089Z,4.58
2022-12-07T06:28:38.081Z,4.55
2022-12-07T06:29:38.172Z,4.54
2022-12-07T06:30:38.078Z,4.52
2022-12-07T06:31:38.116Z,4.52
2022-12-07T06:32:38.039Z,4.51
2022-12-07T06:33:38.032Z,4.48
2022-12-07T06:34:38.088Z,4.44
2022-12-07T06:35:38.080Z,4.41
2022-12-07T06:36:37.992Z,4.37
2022-12-07T06:37:37.981Z,4.33
2022-12-07T06:38:38.042Z,4.29
2022-12-07T06:39:37.965Z,4.27
2022-12-07T06:40:37.971Z,4.24
2022-12-07T06:41:37.930Z,4.23
2022-12-07T06:42:37.927Z,4.22
2022-12-07T06:43:37.912Z,4.20
2022-12-07T06:44:37.913Z,4.18
2022-12-07T06:45:37.924Z,4.16
2022-12-07T06:46:37.890Z,4.18
2022-12-07T06:47:41.086Z,4.15
2022-12-07T06:48:38.912Z,4.16
2022-12-07T06:49:37.852Z,4.18
2022-12-07T06:50:37.872Z,4.15
2022-12-07T06:51:37.956Z,4.15
2022-12-07T06:52:37.840Z,4.12
2022-12-07T06:53:37.809Z,4.11
2022-12-07T06:54:37.799Z,4.11
2022-12-07T06:55:37.810Z,4.09
2022-12-07T06:56:37.787Z,4.08
2022-12-07T06:57:37.762Z,4.08
2022-12-07T06:58:37.771Z,4.05
2022-12-07T06:59:37.748Z,4.08
2022-12-07T07:00:37.750Z,4.06
2022-12-07T07:01:37.864Z,4.05
2022-12-07T07:02:37.763Z,4.05
2022-12-07T07:03:37.728Z,4.06
2022-12-07T07:04:37.703Z,4.06
2022-12-07T07:05:37.701Z,4.08
2022-12-07T07:06:37.672Z,4.11
2022-12-07T07:07:51.798Z,4.12
2022-12-07T07:08:38.670Z,4.11
2022-12-07T07:09:37.632Z,4.11
2022-12-07T07:10:37.648Z,4.09
2022-12-07T07:11:37.622Z,4.11
2022-12-07T07:12:37.611Z,4.11
2022-12-07T07:13:37.604Z,4.09
2022-12-07T07:14:37.590Z,4.08
2022-12-07T07:15:37.581Z,4.08
2022-12-07T07:16:37.639Z,4.09
2022-12-07T07:17:37.554Z,4.11
2022-12-07T07:18:37.559Z,4.11
2022-12-07T07:19:37.525Z,4.11
2022-12-07T07:20:37.545Z,4.09
2022-12-07T07:21:37.514Z,4.09
2022-12-07T07:22:37.577Z,4.08
2022-12-07T07:23:37.484Z,4.06
2022-12-07T07:24:37.474Z,4.08
2022-12-07T07:25:37.485Z,4.08
2022-12-07T07:26:37.466Z,4.06
2022-12-07T07:27:37.445Z,4.04
2022-12-07T07:28:37.445Z,4.04
2022-12-07T07:29:37.447Z,4.05
2022-12-07T07:30:37.430Z,4.05
2022-12-07T07:31:37.425Z,4.05
2022-12-07T07:32:37.398Z,4.04
2022-12-07T07:33:37.382Z,4.02
2022-12-07T07:34:37.375Z,4.04
2022-12-07T07:35:37.365Z,4.05
2022-12-07T07:36:37.346Z,4.05
2022-12-07T07:37:37.338Z,4.08
2022-12-07T07:38:37.328Z,4.09
2022-12-07T07:39:37.315Z,4.12
2022-12-07T07:40:37.346Z,4.12
2022-12-07T07:41:37.314Z,4.12
2022-12-07T07:42:37.286Z,4.14
2022-12-07T07:43:37.337Z,4.14
2022-12-07T07:44:37.307Z,4.14
2022-12-07T07:45:37.383Z,4.14
2022-12-07T07:46:37.341Z,4.14
2022-12-07T07:47:37.237Z,4.16
2022-12-07T07:48:37.220Z,4.16
2022-12-07T07:49:37.208Z,4.18
2022-12-07T07:50:37.270Z,4.20
2022-12-07T07:51:37.187Z,4.23
2022-12-07T07:52:37.227Z,4.24
2022-12-07T07:53:37.168Z,4.29
2022-12-07T07:54:37.157Z,4.34
2022-12-07T07:55:37.169Z,4.36
2022-12-07T07:56:37.148Z,4.40
2022-12-07T07:57:37.127Z,4.40
2022-12-07T07:58:37.128Z,4.44
2022-12-07T07:59:37.109Z,4.47
2022-12-07T08:00:37.118Z,4.51
2022-12-07T08:01:37.123Z,4.51
2022-12-07T08:02:37.078Z,4.54
2022-12-07T08:03:37.066Z,4.59
2022-12-07T08:04:37.077Z,4.59
2022-12-07T08:05:37.050Z,4.58
2022-12-07T08:06:37.031Z,4.55
2022-12-07T08:07:37.053Z,4.54
2022-12-07T08:08:37.010Z,4.50
2022-12-07T08:09:36.998Z,4.47
2022-12-07T08:10:37.000Z,4.44
2022-12-07T08:11:36.970Z,4.42
2022-12-07T08:12:36.976Z,4.37
2022-12-07T08:13:37.006Z,4.34
2022-12-07T08:14:36.952Z,4.33
2022-12-07T08:15:36.975Z,4.33
2022-12-07T08:16:36.929Z,4.37
2022-12-07T08:17:36.921Z,4.37
2022-12-07T08:18:36.900Z,4.40
2022-12-07T08:19:36.920Z,4.41
2022-12-07T08:20:36.903Z,4.42
2022-12-07T08:21:36.859Z,4.42
2022-12-07T08:22:36.861Z,4.41
2022-12-07T08:23:39.928Z,4.41
2022-12-07T08:24:36.841Z,4.42
2022-12-07T08:25:36.848Z,4.44
2022-12-07T08:26:36.821Z,4.47
2022-12-07T08:27:36.810Z,4.47
2022-12-07T08:28:36.827Z,4.50
2022-12-07T08:29:36.800Z,4.52
2022-12-07T08:30:36.771Z,4.58
2022-12-07T08:31:36.853Z,4.55
2022-12-07T08:32:36.758Z,4.59
2022-12-07T08:33:36.745Z,4.62
2022-12-07T08:34:36.774Z,4.65
2022-12-07T08:35:36.741Z,4.67
2022-12-07T08:36:36.722Z,4.70
2022-12-07T08:37:36.721Z,4.73
2022-12-07T08:38:36.692Z,4.77
2022-12-07T08:39:36.685Z,4.80
2022-12-07T08:40:36.671Z,4.84
2022-12-07T08:41:36.668Z,4.85
2022-12-07T08:42:36.651Z,4.85
2022-12-07T08:43:36.648Z,4.86
2022-12-07T08:44:36.623Z,4.86
2022-12-07T08:45:36.611Z,4.89
2022-12-07T08:46:37.048Z,4.91
2022-12-07T08:47:36.592Z,4.91
2022-12-07T08:48:36.582Z,4.91
2022-12-07T08:49:36.661Z,4.91
2022-12-07T08:50:36.563Z,4.91
2022-12-07T08:51:36.565Z,4.91
2022-12-07T08:52:36.541Z,4.92
2022-12-07T08:53:36.532Z,4.91
2022-12-07T08:54:36.542Z,4.88
2022-12-07T08:55:36.503Z,4.86
2022-12-07T08:56:36.521Z,4.84
2022-12-07T08:57:36.543Z,4.84
2022-12-07T08:58:36.473Z,4.82
2022-12-07T08:59:36.464Z,4.80
2022-12-07T09:00:36.454Z,4.80
2022-12-07T09:01:36.559Z,4.80
2022-12-07T09:02:36.435Z,4.82
2022-12-07T09:03:36.422Z,4.82
2022-12-07T09:04:36.416Z,4.82
2022-12-07T09:05:36.451Z,4.84
2022-12-07T09:06:36.495Z,4.86
2022-12-07T09:07:36.476Z,4.89
2022-12-07T09:08:36.375Z,4.96
2022-12-07T09:09:36.368Z,4.99
2022-12-07T09:10:36.363Z,5.00
2022-12-07T09:11:36.386Z,5.02
2022-12-07T09:12:36.335Z,5.02
2022-12-07T09:13:36.307Z,5.03
2022-12-07T09:14:36.315Z,5.07
2022-12-07T09:15:36.331Z,5.12
2022-12-07T09:16:36.371Z,5.18
2022-12-07T09:17:36.291Z,5.21
2022-12-07T09:18:36.338Z,5.24
2022-12-07T09:19:36.256Z,5.30
2022-12-07T09:20:36.245Z,5.33
2022-12-07T09:21:36.252Z,5.36
2022-12-07T09:22:36.236Z,5.39
2022-12-07T09:23:36.215Z,5.40
2022-12-07T09:24:36.206Z,5.42
2022-12-07T09:25:36.187Z,5.42
2022-12-07T09:26:36.208Z,5.42
2022-12-07T09:27:36.196Z,5.43
2022-12-07T09:28:36.169Z,5.42
2022-12-07T09:29:36.148Z,5.43
2022-12-07T09:30:52.689Z,5.42
2022-12-07T09:31:37.156Z,5.43
2022-12-07T09:32:36.170Z,5.42
2022-12-07T09:33:36.119Z,5.40
2022-12-07T09:34:36.181Z,5.40
2022-12-07T09:35:36.078Z,5.40
2022-12-07T09:36:36.087Z,5.39
2022-12-07T09:37:36.076Z,5.40
2022-12-07T09:38:36.050Z,5.39
2022-12-07T09:39:36.029Z,5.39
2022-12-07T09:40:36.020Z,5.40
2022-12-07T09:41:36.017Z,5.46
2022-12-07T09:42:36.050Z,5.48
2022-12-07T09:43:35.998Z,5.53
2022-12-07T09:44:35.980Z,5.54
2022-12-07T09:45:35.959Z,5.57
2022-12-07T09:46:35.983Z,5.57
2022-12-07T09:47:35.971Z,5.58
2022-12-07T09:48:35.937Z,5.60
2022-12-07T09:49:35.924Z,5.60
2022-12-07T09:50:35.914Z,5.61
2022-12-07T09:51:35.910Z,5.64
2022-12-07T09:52:39.036Z,5.63
2022-12-07T09:53:35.890Z,5.65
2022-12-07T09:54:35.871Z,5.65
2022-12-07T09:55:35.862Z,5.67
2022-12-07T09:56:35.851Z,5.67
2022-12-07T09:57:35.841Z,5.68
2022-12-07T09:58:35.831Z,5.71
2022-12-07T09:59:36.814Z,5.72
2022-12-07T10:00:35.802Z,5.74
2022-12-07T10:01:35.856Z,5.74
2022-12-07T10:02:35.802Z,5.74
2022-12-07T10:03:35.786Z,5.72
2022-12-07T10:04:35.835Z,5.72
2022-12-07T10:05:35.811Z,5.74
2022-12-07T10:06:35.762Z,5.76
2022-12-07T10:07:35.791Z,5.75
2022-12-07T10:08:35.722Z,5.75
2022-12-07T10:09:35.715Z,5.78
2022-12-07T10:10:38.632Z,5.78
2022-12-07T10:11:35.682Z,5.81
2022-12-07T10:12:35.693Z,5.82
2022-12-07T10:13:35.674Z,5.83
2022-12-07T10:15:36.642Z,5.86
2022-12-07T10:16:35.691Z,5.90
2022-12-07T10:17:35.636Z,5.89
2022-12-07T10:18:35.613Z,5.86
2022-12-07T10:19:35.595Z,5.89
2022-12-07T10:20:35.613Z,5.91
2022-12-07T10:21:35.585Z,5.91
2022-12-07T10:22:35.581Z,5.91
2022-12-07T10:23:35.564Z,5.94
2022-12-07T10:24:35.546Z,5.97
2022-12-07T10:25:35.536Z,6.01
2022-12-07T10:26:35.546Z,6.04
2022-12-07T10:27:35.525Z,6.04
2022-12-07T10:28:41.693Z,6.08
2022-12-07T10:29:36.497Z,6.08
2022-12-07T10:30:35.497Z,6.08
2022-12-07T10:31:35.528Z,6.09
2022-12-07T10:32:35.508Z,6.11
2022-12-07T10:33:35.456Z,6.14
2022-12-07T10:34:41.470Z,6.15
2022-12-07T10:35:36.433Z,6.14
2022-12-07T10:36:35.418Z,6.12
2022-12-07T10:37:35.417Z,6.14
2022-12-07T10:38:35.397Z,6.12
2022-12-07T10:39:35.378Z,6.12
2022-12-07T10:40:35.378Z,6.12
2022-12-07T10:41:35.366Z,6.12
2022-12-07T10:42:35.360Z,6.18
2022-12-07T10:43:35.347Z,6.22
2022-12-07T10:44:35.339Z,6.28
2022-12-07T10:45:38.725Z,6.31
2022-12-07T10:46:36.423Z,6.36
2022-12-07T10:47:35.308Z,6.37
2022-12-07T10:48:35.296Z,6.41
2022-12-07T10:49:35.269Z,6.40
2022-12-07T10:50:35.270Z,6.40
2022-12-07T10:51:39.372Z,6.40
2022-12-07T10:52:35.267Z,6.37
2022-12-07T10:53:35.250Z,6.38
2022-12-07T10:54:35.219Z,6.37
2022-12-07T10:55:35.213Z,6.37
2022-12-07T10:56:35.210Z,6.38
2022-12-07T10:57:35.210Z,6.36
2022-12-07T10:58:35.188Z,6.36
2022-12-07T10:59:35.171Z,6.33
2022-12-07T11:00:35.206Z,6.33
2022-12-07T11:01:35.283Z,6.36
2022-12-07T11:02:35.222Z,6.36
2022-12-07T11:03:35.140Z,6.36
2022-12-07T11:04:35.112Z,6.36
2022-12-07T11:05:35.113Z,6.36
2022-12-07T11:06:35.090Z,6.36
2022-12-07T11:07:35.125Z,6.36
2022-12-07T11:08:35.138Z,6.34
2022-12-07T11:10:06.748Z,6.34
2022-12-07T11:10:36.042Z,6.30
2022-12-07T11:11:35.041Z,6.33
2022-12-07T11:12:35.038Z,6.37
2022-12-07T11:13:35.044Z,6.40
2022-12-07T11:14:35.013Z,6.43
2022-12-07T11:15:35.001Z,6.41
2022-12-07T11:16:35.104Z,6.43
2022-12-07T11:17:34.980Z,6.44
2022-12-07T11:18:34.964Z,6.49
2022-12-07T11:19:34.953Z,6.52
2022-12-07T11:20:34.943Z,6.56
2022-12-07T11:21:34.934Z,6.64
2022-12-07T11:22:34.923Z,6.71
2022-12-07T11:23:34.934Z,6.70
2022-12-07T11:24:34.894Z,6.73
2022-12-07T11:25:35.003Z,6.71
2022-12-07T11:26:34.884Z,6.71
2022-12-07T11:27:34.865Z,6.71
2022-12-07T11:28:34.864Z,6.74
2022-12-07T11:29:34.845Z,6.79
2022-12-07T11:30:34.828Z,6.91
2022-12-07T11:31:34.930Z,6.95
2022-12-07T11:32:34.807Z,7.03
2022-12-07T11:33:34.815Z,7.05
2022-12-07T11:34:34.796Z,7.10
2022-12-07T11:35:34.784Z,7.13
2022-12-07T11:36:34.766Z,7.12
2022-12-07T11:37:38.279Z,7.07
2022-12-07T11:38:35.757Z,7.06
2022-12-07T11:39:34.746Z,7.03
2022-12-07T11:40:34.740Z,7.02
2022-12-07T11:41:34.727Z,6.98
2022-12-07T11:42:34.698Z,7.02
2022-12-07T11:43:34.748Z,7.02
2022-12-07T11:44:34.708Z,7.02
2022-12-07T11:45:34.680Z,6.98
2022-12-07T11:46:34.702Z,7.02
2022-12-07T11:47:34.670Z,6.99
2022-12-07T11:48:34.656Z,6.97
2022-12-07T11:49:34.639Z,6.97
2022-12-07T11:50:34.627Z,6.94
2022-12-07T11:51:34.609Z,6.91
2022-12-07T11:52:34.599Z,6.91
2022-12-07T11:53:34.618Z,6.87
2022-12-07T11:54:34.581Z,6.80
2022-12-07T11:55:34.571Z,6.79
2022-12-07T11:56:34.551Z,6.79
2022-12-07T11:57:34.550Z,6.76
2022-12-07T11:58:34.568Z,6.77
2022-12-07T11:59:34.532Z,6.79
2022-12-07T12:00:34.509Z,6.85
2022-12-07T12:01:34.522Z,6.88
2022-12-07T12:02:34.570Z,6.89
2022-12-07T12:03:34.548Z,6.91
2022-12-07T12:04:34.511Z,6.91
2022-12-07T12:05:34.554Z,6.92
2022-12-07T12:06:34.533Z,6.92
2022-12-07T12:10:34.424Z,7.02
2022-12-07T12:11:34.403Z,7.10
2022-12-07T12:14:36.443Z,7.21
2022-12-07T12:15:34.358Z,7.17
2022-12-07T12:16:34.453Z,7.12
2022-12-07T12:17:34.325Z,7.20
2022-12-07T12:18:34.345Z,7.30
2022-12-07T12:19:34.321Z,7.35
2022-12-07T12:20:34.295Z,7.39
2022-12-07T12:21:34.296Z,7.34
2022-12-07T12:22:34.295Z,7.27
2022-12-07T12:23:34.287Z,7.24
2022-12-07T12:24:34.248Z,7.21
2022-12-07T12:25:34.268Z,7.15
2022-12-07T12:26:34.241Z,7.09
2022-12-07T12:27:34.210Z,7.06
2022-12-07T12:28:34.247Z,6.97
2022-12-07T12:29:34.249Z,6.95
2022-12-07T12:30:34.218Z,6.91
2022-12-07T12:31:34.278Z,6.89
2022-12-07T12:32:34.169Z,6.88
2022-12-07T12:33:34.174Z,6.85
2022-12-07T12:34:34.158Z,6.87
2022-12-07T12:35:34.140Z,6.87
2022-12-07T12:36:34.254Z,6.87
2022-12-07T12:37:34.110Z,6.89
2022-12-07T12:38:34.115Z,6.88
2022-12-07T12:39:34.099Z,6.87
2022-12-07T12:40:34.081Z,6.87
2022-12-07T12:41:34.061Z,6.84
2022-12-07T12:42:34.058Z,6.81
2022-12-07T12:43:34.050Z,6.80
2022-12-07T12:44:34.054Z,6.77
2022-12-07T12:45:34.047Z,6.71
2022-12-07T12:46:34.021Z,6.71
2022-12-07T12:47:34.062Z,6.71
2022-12-07T12:48:33.992Z,6.71
2022-12-07T12:49:33.997Z,6.71
2022-12-07T12:50:33.972Z,6.71
2022-12-07T12:51:33.953Z,6.70
2022-12-07T12:52:33.945Z,6.70
2022-12-07T12:53:33.944Z,6.70
2022-12-07T12:54:33.932Z,6.69
2022-12-07T12:55:33.914Z,6.69
2022-12-07T12:56:33.903Z,6.70
2022-12-07T12:57:33.893Z,6.71
2022-12-07T12:58:33.895Z,6.70
2022-12-07T12:59:33.955Z,6.67
2022-12-07T13:00:33.855Z,6.66
2022-12-07T13:01:33.890Z,6.61
2022-12-07T13:02:33.908Z,6.56
2022-12-07T13:03:33.825Z,6.54
2022-12-07T13:04:33.876Z,6.49
2022-12-07T13:05:33.803Z,6.48
2022-12-07T13:06:33.819Z,6.46
2022-12-07T13:07:33.788Z,6.46
2022-12-07T13:08:35.410Z,6.44
2022-12-07T13:09:33.765Z,6.44
2022-12-07T13:10:33.873Z,6.43
2022-12-07T13:11:33.736Z,6.43
2022-12-07T13:12:33.727Z,6.41
2022-12-07T13:13:33.736Z,6.43
2022-12-07T13:14:33.949Z,6.43
2022-12-07T13:15:33.705Z,6.44
2022-12-07T13:16:33.760Z,6.43
2022-12-07T13:17:33.708Z,6.41
2022-12-07T13:18:33.667Z,6.43
2022-12-07T13:19:33.668Z,6.41
2022-12-07T13:20:33.647Z,6.38
2022-12-07T13:21:33.635Z,6.36
2022-12-07T13:22:33.637Z,6.36
2022-12-07T13:23:33.628Z,6.37
2022-12-07T13:24:33.631Z,6.33